sensor_id;sensor_type;location;lat;lon;timestamp;temperature;humidity
30648;DHT22;17683;53.360;9.736;2023-07-13T00:01:51;16.20;99.90
30648;DHT22;17683;53.360;9.736;2023-07-13T00:04:22;16.20;99.90
30648;DHT22;17683;53.360;9.736;2023-07-13T00:06:48;16.20;99.90
30648;DHT22;17683;53.360;9.736;2023-07-13T00:09:17;16.20;99.90
30648;DHT22;17683;53.360;9.736;2023-07-13T00:11:43;16.20;99.90
30648;DHT22;17683;53.360;9.736;2023-07-13T00:14:10;16.10;99.90
30648;DHT22;17683;53.360;9.736;2023-07-13T00:16:38;16.10;99.90
30648;DHT22;17683;53.360;9.736;2023-07-13T00:19:04;16.10;99.90
30648;DHT22;17683;53.360;9.736;2023-07-13T00:21:31;16.20;99.90
30648;DHT22;17683;53.360;9.736;2023-07-13T00:23:56;16.10;99.90
30648;DHT22;17683;53.360;9.736;2023-07-13T00:26:22;16.10;99.90
30648;DHT22;17683;53.360;9.736;2023-07-13T00:28:48;16.10;99.90
30648;DHT22;17683;53.360;9.736;2023-07-13T00:31:14;16.10;99.90
30648;DHT22;17683;53.360;9.736;2023-07-13T00:33:40;16.10;99.90
30648;DHT22;17683;53.360;9.736;2023-07-13T00:36:08;16.00;99.90
30648;DHT22;17683;53.360;9.736;2023-07-13T00:38:34;16.00;99.90
30648;DHT22;17683;53.360;9.736;2023-07-13T00:40:59;16.00;99.90
30648;DHT22;17683;53.360;9.736;2023-07-13T00:43:27;16.00;99.90
30648;DHT22;17683;53.360;9.736;2023-07-13T00:48:27;15.90;99.90
30648;DHT22;17683;53.360;9.736;2023-07-13T00:50:55;15.90;99.90
30648;DHT22;17683;53.360;9.736;2023-07-13T00:53:22;15.90;99.90
30648;DHT22;17683;53.360;9.736;2023-07-13T00:55:51;15.90;99.90
30648;DHT22;17683;53.360;9.736;2023-07-13T00:58:17;15.80;99.90
30648;DHT22;17683;53.360;9.736;2023-07-13T01:00:44;15.80;99.90
30648;DHT22;17683;53.360;9.736;2023-07-13T01:03:11;15.80;99.90
30648;DHT22;17683;53.360;9.736;2023-07-13T01:05:37;15.70;99.90
30648;DHT22;17683;53.360;9.736;2023-07-13T01:08:03;15.70;99.90
30648;DHT22;17683;53.360;9.736;2023-07-13T01:10:30;15.60;99.90
30648;DHT22;17683;53.360;9.736;2023-07-13T01:13:07;15.60;99.90
30648;DHT22;17683;53.360;9.736;2023-07-13T01:18:25;15.60;99.90
30648;DHT22;17683;53.360;9.736;2023-07-13T01:20:53;15.50;99.90
30648;DHT22;17683;53.360;9.736;2023-07-13T01:23:19;15.50;99.90
30648;DHT22;17683;53.360;9.736;2023-07-13T01:25:45;15.40;99.90
30648;DHT22;17683;53.360;9.736;2023-07-13T01:28:11;15.50;99.90
30648;DHT22;17683;53.360;9.736;2023-07-13T01:30:37;15.40;99.90
30648;DHT22;17683;53.360;9.736;2023-07-13T01:33:06;15.40;99.90
30648;DHT22;17683;53.360;9.736;2023-07-13T01:35:33;15.40;99.90
30648;DHT22;17683;53.360;9.736;2023-07-13T01:37:59;15.40;99.90
30648;DHT22;17683;53.360;9.736;2023-07-13T01:40:27;15.40;99.90
30648;DHT22;17683;53.360;9.736;2023-07-13T01:42:53;15.50;99.90
30648;DHT22;17683;53.360;9.736;2023-07-13T01:45:19;15.50;99.90
30648;DHT22;17683;53.360;9.736;2023-07-13T01:47:44;15.60;99.90
30648;DHT22;17683;53.360;9.736;2023-07-13T01:50:10;15.60;99.90
30648;DHT22;17683;53.360;9.736;2023-07-13T01:52:36;15.50;99.90
30648;DHT22;17683;53.360;9.736;2023-07-13T01:55:02;15.50;99.90
30648;DHT22;17683;53.360;9.736;2023-07-13T01:57:27;15.50;99.90
30648;DHT22;17683;53.360;9.736;2023-07-13T01:59:53;15.50;99.90
30648;DHT22;17683;53.360;9.736;2023-07-13T02:02:19;15.50;99.90
30648;DHT22;17683;53.360;9.736;2023-07-13T02:04:45;15.50;99.90
30648;DHT22;17683;53.360;9.736;2023-07-13T02:07:11;15.40;99.90
30648;DHT22;17683;53.360;9.736;2023-07-13T02:09:36;15.40;99.90
30648;DHT22;17683;53.360;9.736;2023-07-13T02:12:02;15.40;99.90
30648;DHT22;17683;53.360;9.736;2023-07-13T02:14:28;15.40;99.90
30648;DHT22;17683;53.360;9.736;2023-07-13T02:16:54;15.40;99.90
30648;DHT22;17683;53.360;9.736;2023-07-13T02:19:20;15.40;99.90
30648;DHT22;17683;53.360;9.736;2023-07-13T02:21:45;15.30;99.90
30648;DHT22;17683;53.360;9.736;2023-07-13T02:24:11;15.30;99.90
30648;DHT22;17683;53.360;9.736;2023-07-13T02:26:43;15.30;99.90
30648;DHT22;17683;53.360;9.736;2023-07-13T02:29:09;15.20;99.90
30648;DHT22;17683;53.360;9.736;2023-07-13T02:31:34;15.30;99.90
30648;DHT22;17683;53.360;9.736;2023-07-13T02:34:01;15.20;99.90
30648;DHT22;17683;53.360;9.736;2023-07-13T02:36:27;15.20;99.90
30648;DHT22;17683;53.360;9.736;2023-07-13T02:38:52;15.20;99.90
30648;DHT22;17683;53.360;9.736;2023-07-13T02:41:18;15.20;99.90
30648;DHT22;17683;53.360;9.736;2023-07-13T02:43:44;15.10;99.90
30648;DHT22;17683;53.360;9.736;2023-07-13T02:46:10;15.10;99.90
30648;DHT22;17683;53.360;9.736;2023-07-13T02:48:37;15.10;99.90
30648;DHT22;17683;53.360;9.736;2023-07-13T02:51:03;15.10;99.90
30648;DHT22;17683;53.360;9.736;2023-07-13T02:53:29;15.00;99.90
30648;DHT22;17683;53.360;9.736;2023-07-13T02:55:54;15.00;99.90
30648;DHT22;17683;53.360;9.736;2023-07-13T02:58:20;15.00;99.90
30648;DHT22;17683;53.360;9.736;2023-07-13T03:00:46;14.90;99.90
30648;DHT22;17683;53.360;9.736;2023-07-13T03:03:15;14.90;99.90
30648;DHT22;17683;53.360;9.736;2023-07-13T03:05:43;14.90;99.90
30648;DHT22;17683;53.360;9.736;2023-07-13T03:08:15;14.90;99.90
30648;DHT22;17683;53.360;9.736;2023-07-13T03:10:41;14.80;99.90
30648;DHT22;17683;53.360;9.736;2023-07-13T03:13:07;14.90;99.90
30648;DHT22;17683;53.360;9.736;2023-07-13T03:15:33;14.90;99.90
30648;DHT22;17683;53.360;9.736;2023-07-13T03:17:58;14.80;99.90
30648;DHT22;17683;53.360;9.736;2023-07-13T03:20:24;14.80;99.90
30648;DHT22;17683;53.360;9.736;2023-07-13T03:22:50;14.80;99.90
30648;DHT22;17683;53.360;9.736;2023-07-13T03:25:15;14.70;99.90
30648;DHT22;17683;53.360;9.736;2023-07-13T03:27:41;14.70;99.90
30648;DHT22;17683;53.360;9.736;2023-07-13T03:30:07;14.70;99.90
30648;DHT22;17683;53.360;9.736;2023-07-13T03:32:33;14.70;99.90
30648;DHT22;17683;53.360;9.736;2023-07-13T03:34:59;14.70;99.90
30648;DHT22;17683;53.360;9.736;2023-07-13T03:37:25;14.80;99.90
30648;DHT22;17683;53.360;9.736;2023-07-13T03:39:51;14.80;99.90
30648;DHT22;17683;53.360;9.736;2023-07-13T03:42:16;14.70;99.90
30648;DHT22;17683;53.360;9.736;2023-07-13T03:44:42;14.80;99.90
30648;DHT22;17683;53.360;9.736;2023-07-13T03:47:11;14.70;99.90
30648;DHT22;17683;53.360;9.736;2023-07-13T03:49:37;14.70;99.90
30648;DHT22;17683;53.360;9.736;2023-07-13T03:52:03;14.70;99.90
30648;DHT22;17683;53.360;9.736;2023-07-13T03:54:29;14.70;99.90
30648;DHT22;17683;53.360;9.736;2023-07-13T03:56:54;14.70;99.90
30648;DHT22;17683;53.360;9.736;2023-07-13T03:59:20;14.70;99.90
30648;DHT22;17683;53.360;9.736;2023-07-13T04:01:46;14.70;99.90
30648;DHT22;17683;53.360;9.736;2023-07-13T04:04:12;14.80;99.90
30648;DHT22;17683;53.360;9.736;2023-07-13T04:06:38;14.80;99.90
30648;DHT22;17683;53.360;9.736;2023-07-13T04:09:04;14.80;99.90
30648;DHT22;17683;53.360;9.736;2023-07-13T04:11:34;14.80;99.90
30648;DHT22;17683;53.360;9.736;2023-07-13T04:14:01;14.80;99.90
30648;DHT22;17683;53.360;9.736;2023-07-13T04:16:27;14.80;99.90
30648;DHT22;17683;53.360;9.736;2023-07-13T04:18:54;14.80;99.90
30648;DHT22;17683;53.360;9.736;2023-07-13T04:21:24;14.80;99.90
30648;DHT22;17683;53.360;9.736;2023-07-13T04:23:50;14.90;99.90
30648;DHT22;17683;53.360;9.736;2023-07-13T04:26:16;14.90;99.90
30648;DHT22;17683;53.360;9.736;2023-07-13T04:28:41;14.90;99.90
30648;DHT22;17683;53.360;9.736;2023-07-13T04:31:07;14.90;99.90
30648;DHT22;17683;53.360;9.736;2023-07-13T04:33:33;15.00;99.90
30648;DHT22;17683;53.360;9.736;2023-07-13T04:35:59;15.10;99.90
30648;DHT22;17683;53.360;9.736;2023-07-13T04:38:28;15.10;99.90
30648;DHT22;17683;53.360;9.736;2023-07-13T04:40:56;15.20;99.90
30648;DHT22;17683;53.360;9.736;2023-07-13T04:43:22;15.30;99.90
30648;DHT22;17683;53.360;9.736;2023-07-13T04:45:50;15.30;99.90
30648;DHT22;17683;53.360;9.736;2023-07-13T04:48:16;15.50;99.90
30648;DHT22;17683;53.360;9.736;2023-07-13T04:50:42;15.50;99.90
30648;DHT22;17683;53.360;9.736;2023-07-13T04:53:09;15.70;99.90
30648;DHT22;17683;53.360;9.736;2023-07-13T04:55:36;15.80;99.90
30648;DHT22;17683;53.360;9.736;2023-07-13T04:58:01;15.80;99.90
30648;DHT22;17683;53.360;9.736;2023-07-13T05:00:28;15.90;99.90
30648;DHT22;17683;53.360;9.736;2023-07-13T05:02:55;16.00;99.90
30648;DHT22;17683;53.360;9.736;2023-07-13T05:05:23;16.00;99.90
30648;DHT22;17683;53.360;9.736;2023-07-13T05:07:48;16.10;99.90
30648;DHT22;17683;53.360;9.736;2023-07-13T05:10:14;16.10;99.90
30648;DHT22;17683;53.360;9.736;2023-07-13T05:12:40;16.20;99.90
30648;DHT22;17683;53.360;9.736;2023-07-13T05:15:06;16.20;99.90
30648;DHT22;17683;53.360;9.736;2023-07-13T05:17:32;16.20;99.90
30648;DHT22;17683;53.360;9.736;2023-07-13T05:19:58;16.30;99.90
30648;DHT22;17683;53.360;9.736;2023-07-13T05:22:24;16.30;99.90
30648;DHT22;17683;53.360;9.736;2023-07-13T05:24:49;16.30;99.90
30648;DHT22;17683;53.360;9.736;2023-07-13T05:27:15;16.30;99.90
30648;DHT22;17683;53.360;9.736;2023-07-13T05:29:41;16.40;99.90
30648;DHT22;17683;53.360;9.736;2023-07-13T05:32:07;16.30;99.90
30648;DHT22;17683;53.360;9.736;2023-07-13T05:34:32;16.30;99.90
30648;DHT22;17683;53.360;9.736;2023-07-13T05:36:58;16.30;99.90
30648;DHT22;17683;53.360;9.736;2023-07-13T05:39:24;16.40;99.90
30648;DHT22;17683;53.360;9.736;2023-07-13T05:41:51;16.50;99.90
30648;DHT22;17683;53.360;9.736;2023-07-13T05:44:17;16.60;99.90
30648;DHT22;17683;53.360;9.736;2023-07-13T05:46:42;16.60;99.90
30648;DHT22;17683;53.360;9.736;2023-07-13T05:49:08;16.70;99.90
30648;DHT22;17683;53.360;9.736;2023-07-13T05:51:34;16.70;99.90
30648;DHT22;17683;53.360;9.736;2023-07-13T05:53:59;16.80;99.90
30648;DHT22;17683;53.360;9.736;2023-07-13T05:56:25;16.90;99.90
30648;DHT22;17683;53.360;9.736;2023-07-13T05:58:52;17.00;99.90
30648;DHT22;17683;53.360;9.736;2023-07-13T06:01:18;17.10;99.90
30648;DHT22;17683;53.360;9.736;2023-07-13T06:03:46;17.10;99.90
30648;DHT22;17683;53.360;9.736;2023-07-13T06:06:12;17.10;99.90
30648;DHT22;17683;53.360;9.736;2023-07-13T06:08:38;17.20;99.90
30648;DHT22;17683;53.360;9.736;2023-07-13T06:13:37;17.30;99.90
30648;DHT22;17683;53.360;9.736;2023-07-13T06:16:03;17.30;99.90
30648;DHT22;17683;53.360;9.736;2023-07-13T06:18:33;17.40;99.90
30648;DHT22;17683;53.360;9.736;2023-07-13T06:20:59;17.40;99.90
30648;DHT22;17683;53.360;9.736;2023-07-13T06:23:25;17.40;99.90
30648;DHT22;17683;53.360;9.736;2023-07-13T06:25:51;17.50;99.90
30648;DHT22;17683;53.360;9.736;2023-07-13T06:28:17;17.60;99.90
30648;DHT22;17683;53.360;9.736;2023-07-13T06:30:42;17.60;99.90
30648;DHT22;17683;53.360;9.736;2023-07-13T06:33:08;17.70;99.90
30648;DHT22;17683;53.360;9.736;2023-07-13T06:35:34;17.70;99.90
30648;DHT22;17683;53.360;9.736;2023-07-13T06:38:00;17.80;99.90
30648;DHT22;17683;53.360;9.736;2023-07-13T06:40:25;17.90;99.90
30648;DHT22;17683;53.360;9.736;2023-07-13T06:42:53;18.00;99.90
30648;DHT22;17683;53.360;9.736;2023-07-13T06:45:19;18.20;99.90
30648;DHT22;17683;53.360;9.736;2023-07-13T06:47:44;18.40;99.90
30648;DHT22;17683;53.360;9.736;2023-07-13T06:50:10;18.50;99.90
30648;DHT22;17683;53.360;9.736;2023-07-13T06:52:36;18.80;99.90
30648;DHT22;17683;53.360;9.736;2023-07-13T06:55:02;19.00;99.90
30648;DHT22;17683;53.360;9.736;2023-07-13T06:57:28;19.10;99.90
30648;DHT22;17683;53.360;9.736;2023-07-13T06:59:54;19.30;99.90
30648;DHT22;17683;53.360;9.736;2023-07-13T07:02:19;19.50;99.90
30648;DHT22;17683;53.360;9.736;2023-07-13T07:04:45;19.70;99.90
30648;DHT22;17683;53.360;9.736;2023-07-13T07:07:11;19.70;99.90
30648;DHT22;17683;53.360;9.736;2023-07-13T07:09:36;19.80;99.90
30648;DHT22;17683;53.360;9.736;2023-07-13T07:12:03;19.80;99.90
30648;DHT22;17683;53.360;9.736;2023-07-13T07:14:29;19.90;99.90
30648;DHT22;17683;53.360;9.736;2023-07-13T07:16:55;20.10;99.90
30648;DHT22;17683;53.360;9.736;2023-07-13T07:19:20;20.20;99.90
30648;DHT22;17683;53.360;9.736;2023-07-13T07:21:46;20.20;99.90
30648;DHT22;17683;53.360;9.736;2023-07-13T07:24:12;20.20;99.90
30648;DHT22;17683;53.360;9.736;2023-07-13T07:26:37;20.20;99.90
30648;DHT22;17683;53.360;9.736;2023-07-13T07:29:03;20.30;99.90
30648;DHT22;17683;53.360;9.736;2023-07-13T07:31:29;20.30;99.90
30648;DHT22;17683;53.360;9.736;2023-07-13T07:33:54;20.40;99.90
30648;DHT22;17683;53.360;9.736;2023-07-13T07:36:20;20.50;99.90
30648;DHT22;17683;53.360;9.736;2023-07-13T07:38:46;20.40;99.90
30648;DHT22;17683;53.360;9.736;2023-07-13T07:41:13;20.40;99.90
30648;DHT22;17683;53.360;9.736;2023-07-13T07:43:39;20.50;99.90
30648;DHT22;17683;53.360;9.736;2023-07-13T07:46:05;20.60;99.90
30648;DHT22;17683;53.360;9.736;2023-07-13T07:48:31;20.70;99.90
30648;DHT22;17683;53.360;9.736;2023-07-13T07:50:56;20.70;99.90
30648;DHT22;17683;53.360;9.736;2023-07-13T07:53:22;20.70;99.90
30648;DHT22;17683;53.360;9.736;2023-07-13T07:55:48;20.80;99.90
30648;DHT22;17683;53.360;9.736;2023-07-13T07:58:15;20.70;99.90
30648;DHT22;17683;53.360;9.736;2023-07-13T08:00:40;20.60;99.90
30648;DHT22;17683;53.360;9.736;2023-07-13T08:03:06;20.60;99.90
30648;DHT22;17683;53.360;9.736;2023-07-13T08:05:35;20.80;99.90
30648;DHT22;17683;53.360;9.736;2023-07-13T08:08:01;20.90;99.90
30648;DHT22;17683;53.360;9.736;2023-07-13T08:10:27;21.10;99.90
30648;DHT22;17683;53.360;9.736;2023-07-13T08:12:52;21.10;99.90
30648;DHT22;17683;53.360;9.736;2023-07-13T08:15:19;21.20;99.90
30648;DHT22;17683;53.360;9.736;2023-07-13T08:17:49;21.20;99.90
30648;DHT22;17683;53.360;9.736;2023-07-13T08:20:15;21.20;99.90
30648;DHT22;17683;53.360;9.736;2023-07-13T08:22:41;21.10;99.90
30648;DHT22;17683;53.360;9.736;2023-07-13T08:25:07;21.20;99.90
30648;DHT22;17683;53.360;9.736;2023-07-13T08:27:33;21.30;99.90
30648;DHT22;17683;53.360;9.736;2023-07-13T08:29:59;21.30;99.90
30648;DHT22;17683;53.360;9.736;2023-07-13T08:32:24;21.30;99.90
30648;DHT22;17683;53.360;9.736;2023-07-13T08:34:50;21.40;99.90
30648;DHT22;17683;53.360;9.736;2023-07-13T08:37:17;21.50;99.90
30648;DHT22;17683;53.360;9.736;2023-07-13T08:39:43;21.50;99.90
30648;DHT22;17683;53.360;9.736;2023-07-13T08:42:43;21.70;99.90
30648;DHT22;17683;53.360;9.736;2023-07-13T08:45:11;21.60;99.90
30648;DHT22;17683;53.360;9.736;2023-07-13T08:48:02;21.70;99.90
30648;DHT22;17683;53.360;9.736;2023-07-13T08:50:30;21.90;99.90
30648;DHT22;17683;53.360;9.736;2023-07-13T08:52:57;22.00;99.90
30648;DHT22;17683;53.360;9.736;2023-07-13T08:55:33;22.20;99.90
30648;DHT22;17683;53.360;9.736;2023-07-13T08:58:11;22.30;99.90
30648;DHT22;17683;53.360;9.736;2023-07-13T09:03:18;22.60;99.90
30648;DHT22;17683;53.360;9.736;2023-07-13T09:05:56;22.70;99.90
30648;DHT22;17683;53.360;9.736;2023-07-13T09:16:37;23.10;99.90
30648;DHT22;17683;53.360;9.736;2023-07-13T09:19:06;23.00;99.90
30648;DHT22;17683;53.360;9.736;2023-07-13T09:21:39;23.20;99.90
30648;DHT22;17683;53.360;9.736;2023-07-13T09:26:57;23.40;99.90
30648;DHT22;17683;53.360;9.736;2023-07-13T09:29:33;23.50;99.90
30648;DHT22;17683;53.360;9.736;2023-07-13T09:32:03;23.70;99.90
30648;DHT22;17683;53.360;9.736;2023-07-13T09:34:32;23.60;99.90
30648;DHT22;17683;53.360;9.736;2023-07-13T09:36:59;23.50;99.90
30648;DHT22;17683;53.360;9.736;2023-07-13T09:39:30;23.30;99.90
30648;DHT22;17683;53.360;9.736;2023-07-13T09:42:19;23.40;99.90
30648;DHT22;17683;53.360;9.736;2023-07-13T09:44:57;23.50;99.90
30648;DHT22;17683;53.360;9.736;2023-07-13T09:47:27;23.70;99.90
30648;DHT22;17683;53.360;9.736;2023-07-13T09:50:00;23.60;99.90
30648;DHT22;17683;53.360;9.736;2023-07-13T09:52:27;23.50;99.90
30648;DHT22;17683;53.360;9.736;2023-07-13T09:54:54;23.80;99.90
30648;DHT22;17683;53.360;9.736;2023-07-13T09:57:26;24.00;99.90
30648;DHT22;17683;53.360;9.736;2023-07-13T09:59:54;24.20;99.90
30648;DHT22;17683;53.360;9.736;2023-07-13T10:02:28;24.10;99.90
30648;DHT22;17683;53.360;9.736;2023-07-13T10:05:03;24.00;99.90
30648;DHT22;17683;53.360;9.736;2023-07-13T10:07:30;23.80;99.90
30648;DHT22;17683;53.360;9.736;2023-07-13T10:09:59;23.80;99.90
30648;DHT22;17683;53.360;9.736;2023-07-13T10:12:27;23.80;99.90
30648;DHT22;17683;53.360;9.736;2023-07-13T10:14:58;23.90;99.90
30648;DHT22;17683;53.360;9.736;2023-07-13T10:17:30;23.80;99.90
30648;DHT22;17683;53.360;9.736;2023-07-13T10:20:05;23.70;98.90
30648;DHT22;17683;53.360;9.736;2023-07-13T10:25:29;23.60;99.90
30648;DHT22;17683;53.360;9.736;2023-07-13T10:28:03;23.60;99.90
30648;DHT22;17683;53.360;9.736;2023-07-13T10:30:34;23.60;99.90
30648;DHT22;17683;53.360;9.736;2023-07-13T10:33:10;23.60;99.90
30648;DHT22;17683;53.360;9.736;2023-07-13T10:35:37;23.90;99.90
30648;DHT22;17683;53.360;9.736;2023-07-13T10:38:11;24.20;99.90
30648;DHT22;17683;53.360;9.736;2023-07-13T10:41:12;24.20;97.90
30648;DHT22;17683;53.360;9.736;2023-07-13T10:43:50;24.20;98.70
30648;DHT22;17683;53.360;9.736;2023-07-13T10:46:19;24.30;99.10
30648;DHT22;17683;53.360;9.736;2023-07-13T10:48:49;24.30;99.00
30648;DHT22;17683;53.360;9.736;2023-07-13T10:51:18;24.50;98.50
30648;DHT22;17683;53.360;9.736;2023-07-13T10:53:47;24.90;99.40
30648;DHT22;17683;53.360;9.736;2023-07-13T10:56:29;25.10;98.70
30648;DHT22;17683;53.360;9.736;2023-07-13T11:04:48;24.60;97.00
30648;DHT22;17683;53.360;9.736;2023-07-13T11:08:33;24.40;96.40
30648;DHT22;17683;53.360;9.736;2023-07-13T11:10:50;24.20;97.20
30648;DHT22;17683;53.360;9.736;2023-07-13T11:16:00;24.10;97.20
30648;DHT22;17683;53.360;9.736;2023-07-13T11:18:26;24.30;96.00
30648;DHT22;17683;53.360;9.736;2023-07-13T11:20:51;24.40;97.40
30648;DHT22;17683;53.360;9.736;2023-07-13T11:23:19;24.50;96.60
30648;DHT22;17683;53.360;9.736;2023-07-13T11:25:46;24.70;95.90
30648;DHT22;17683;53.360;9.736;2023-07-13T11:30:46;24.90;95.10
30648;DHT22;17683;53.360;9.736;2023-07-13T11:33:22;24.90;94.10
30648;DHT22;17683;53.360;9.736;2023-07-13T11:35:51;24.80;95.50
30648;DHT22;17683;53.360;9.736;2023-07-13T11:38:21;24.80;96.70
30648;DHT22;17683;53.360;9.736;2023-07-13T11:40:50;24.80;95.40
30648;DHT22;17683;53.360;9.736;2023-07-13T11:43:17;24.80;95.60
30648;DHT22;17683;53.360;9.736;2023-07-13T11:45:43;24.80;94.90
30648;DHT22;17683;53.360;9.736;2023-07-13T11:48:20;24.80;95.30
30648;DHT22;17683;53.360;9.736;2023-07-13T11:51:01;24.70;94.60
30648;DHT22;17683;53.360;9.736;2023-07-13T11:53:39;24.50;95.30
30648;DHT22;17683;53.360;9.736;2023-07-13T11:56:06;24.30;94.90
30648;DHT22;17683;53.360;9.736;2023-07-13T11:58:32;24.10;94.90
30648;DHT22;17683;53.360;9.736;2023-07-13T12:01:01;23.90;95.90
30648;DHT22;17683;53.360;9.736;2023-07-13T12:03:30;23.70;96.30
30648;DHT22;17683;53.360;9.736;2023-07-13T12:06:05;23.60;96.30
30648;DHT22;17683;53.360;9.736;2023-07-13T12:08:37;23.40;95.70
30648;DHT22;17683;53.360;9.736;2023-07-13T12:11:13;23.10;97.20
30648;DHT22;17683;53.360;9.736;2023-07-13T12:13:40;22.60;99.00
30648;DHT22;17683;53.360;9.736;2023-07-13T12:16:19;22.20;99.90
30648;DHT22;17683;53.360;9.736;2023-07-13T12:18:48;21.90;99.90
30648;DHT22;17683;53.360;9.736;2023-07-13T12:21:17;21.80;99.90
30648;DHT22;17683;53.360;9.736;2023-07-13T12:23:45;21.60;99.90
30648;DHT22;17683;53.360;9.736;2023-07-13T12:26:12;21.40;99.90
30648;DHT22;17683;53.360;9.736;2023-07-13T12:28:51;21.30;99.90
30648;DHT22;17683;53.360;9.736;2023-07-13T12:34:17;21.10;99.90
30648;DHT22;17683;53.360;9.736;2023-07-13T12:41:52;21.10;99.90
30648;DHT22;17683;53.360;9.736;2023-07-13T12:44:31;21.00;99.90
30648;DHT22;17683;53.360;9.736;2023-07-13T12:47:03;21.10;99.90
30648;DHT22;17683;53.360;9.736;2023-07-13T12:49:33;20.90;99.90
30648;DHT22;17683;53.360;9.736;2023-07-13T12:52:03;20.90;99.90
30648;DHT22;17683;53.360;9.736;2023-07-13T12:54:30;20.70;99.90
30648;DHT22;17683;53.360;9.736;2023-07-13T12:56:58;20.60;99.90
30648;DHT22;17683;53.360;9.736;2023-07-13T12:59:29;20.40;99.90
30648;DHT22;17683;53.360;9.736;2023-07-13T13:01:55;20.50;99.90
30648;DHT22;17683;53.360;9.736;2023-07-13T13:04:21;20.50;99.90
30648;DHT22;17683;53.360;9.736;2023-07-13T13:06:49;20.50;99.90
30648;DHT22;17683;53.360;9.736;2023-07-13T13:09:16;20.50;99.90
30648;DHT22;17683;53.360;9.736;2023-07-13T13:11:43;20.50;99.90
30648;DHT22;17683;53.360;9.736;2023-07-13T13:14:09;20.50;99.90
30648;DHT22;17683;53.360;9.736;2023-07-13T13:16:43;20.30;99.90
30648;DHT22;17683;53.360;9.736;2023-07-13T13:19:14;20.20;99.90
30648;DHT22;17683;53.360;9.736;2023-07-13T13:21:42;20.10;99.90
30648;DHT22;17683;53.360;9.736;2023-07-13T13:24:14;20.20;99.90
30648;DHT22;17683;53.360;9.736;2023-07-13T13:26:41;20.20;99.90
30648;DHT22;17683;53.360;9.736;2023-07-13T13:29:15;20.20;99.90
30648;DHT22;17683;53.360;9.736;2023-07-13T13:31:42;20.30;99.90
30648;DHT22;17683;53.360;9.736;2023-07-13T13:34:10;20.30;99.90
30648;DHT22;17683;53.360;9.736;2023-07-13T13:36:37;20.10;99.90
30648;DHT22;17683;53.360;9.736;2023-07-13T13:39:04;20.20;99.90
30648;DHT22;17683;53.360;9.736;2023-07-13T13:41:31;20.20;99.90
30648;DHT22;17683;53.360;9.736;2023-07-13T13:43:57;20.20;99.90
30648;DHT22;17683;53.360;9.736;2023-07-13T13:46:25;20.20;99.90
30648;DHT22;17683;53.360;9.736;2023-07-13T13:48:51;20.30;99.90
30648;DHT22;17683;53.360;9.736;2023-07-13T13:51:19;20.30;99.90
30648;DHT22;17683;53.360;9.736;2023-07-13T13:53:47;20.40;99.90
30648;DHT22;17683;53.360;9.736;2023-07-13T13:56:14;20.50;99.90
30648;DHT22;17683;53.360;9.736;2023-07-13T13:58:40;20.40;99.90
30648;DHT22;17683;53.360;9.736;2023-07-13T14:01:21;20.60;99.90
30648;DHT22;17683;53.360;9.736;2023-07-13T14:03:48;20.60;99.90
30648;DHT22;17683;53.360;9.736;2023-07-13T14:06:16;20.60;99.90
30648;DHT22;17683;53.360;9.736;2023-07-13T14:08:42;20.80;99.90
30648;DHT22;17683;53.360;9.736;2023-07-13T14:11:16;20.80;99.90
30648;DHT22;17683;53.360;9.736;2023-07-13T14:13:45;20.90;99.90
30648;DHT22;17683;53.360;9.736;2023-07-13T14:16:18;20.90;99.90
30648;DHT22;17683;53.360;9.736;2023-07-13T14:18:45;21.00;99.90
30648;DHT22;17683;53.360;9.736;2023-07-13T14:21:21;21.00;99.90
30648;DHT22;17683;53.360;9.736;2023-07-13T14:23:48;21.00;99.90
30648;DHT22;17683;53.360;9.736;2023-07-13T14:26:17;21.00;99.90
30648;DHT22;17683;53.360;9.736;2023-07-13T14:28:46;21.00;99.90
30648;DHT22;17683;53.360;9.736;2023-07-13T14:31:13;20.90;99.90
30648;DHT22;17683;53.360;9.736;2023-07-13T14:33:40;20.90;99.90
30648;DHT22;17683;53.360;9.736;2023-07-13T14:36:28;20.90;99.90
30648;DHT22;17683;53.360;9.736;2023-07-13T14:38:55;20.80;99.90
30648;DHT22;17683;53.360;9.736;2023-07-13T14:41:21;20.80;99.90
30648;DHT22;17683;53.360;9.736;2023-07-13T14:43:47;20.70;99.90
30648;DHT22;17683;53.360;9.736;2023-07-13T14:46:27;20.80;99.90
30648;DHT22;17683;53.360;9.736;2023-07-13T14:51:26;20.80;99.90
30648;DHT22;17683;53.360;9.736;2023-07-13T14:53:52;20.80;99.90
30648;DHT22;17683;53.360;9.736;2023-07-13T14:56:18;20.80;99.90
30648;DHT22;17683;53.360;9.736;2023-07-13T14:58:44;20.90;99.90
30648;DHT22;17683;53.360;9.736;2023-07-13T15:01:13;21.00;99.90
30648;DHT22;17683;53.360;9.736;2023-07-13T15:03:44;21.00;99.90
30648;DHT22;17683;53.360;9.736;2023-07-13T15:06:12;21.00;99.90
30648;DHT22;17683;53.360;9.736;2023-07-13T15:08:39;21.20;99.90
30648;DHT22;17683;53.360;9.736;2023-07-13T15:11:07;21.40;99.90
30648;DHT22;17683;53.360;9.736;2023-07-13T15:13:32;21.60;99.90
30648;DHT22;17683;53.360;9.736;2023-07-13T15:16:00;21.80;99.90
30648;DHT22;17683;53.360;9.736;2023-07-13T15:18:26;21.90;99.90
30648;DHT22;17683;53.360;9.736;2023-07-13T15:20:53;22.00;99.90
30648;DHT22;17683;53.360;9.736;2023-07-13T15:23:21;22.00;99.90
30648;DHT22;17683;53.360;9.736;2023-07-13T15:25:48;22.00;99.90
30648;DHT22;17683;53.360;9.736;2023-07-13T15:28:14;21.80;99.90
30648;DHT22;17683;53.360;9.736;2023-07-13T15:30:45;21.70;99.90
30648;DHT22;17683;53.360;9.736;2023-07-13T15:33:19;21.60;99.90
30648;DHT22;17683;53.360;9.736;2023-07-13T15:35:47;21.40;99.90
30648;DHT22;17683;53.360;9.736;2023-07-13T15:38:25;21.20;99.90
30648;DHT22;17683;53.360;9.736;2023-07-13T15:40:52;21.20;99.90
30648;DHT22;17683;53.360;9.736;2023-07-13T15:43:19;21.10;99.90
30648;DHT22;17683;53.360;9.736;2023-07-13T15:45:46;21.10;99.90
30648;DHT22;17683;53.360;9.736;2023-07-13T15:48:23;21.20;99.90
30648;DHT22;17683;53.360;9.736;2023-07-13T15:50:50;21.30;99.90
30648;DHT22;17683;53.360;9.736;2023-07-13T15:53:25;21.30;99.90
30648;DHT22;17683;53.360;9.736;2023-07-13T15:55:53;21.30;99.90
30648;DHT22;17683;53.360;9.736;2023-07-13T15:58:19;21.20;99.90
30648;DHT22;17683;53.360;9.736;2023-07-13T16:00:45;21.20;99.90
30648;DHT22;17683;53.360;9.736;2023-07-13T16:03:12;21.10;99.90
30648;DHT22;17683;53.360;9.736;2023-07-13T16:05:38;21.10;99.90
30648;DHT22;17683;53.360;9.736;2023-07-13T16:08:06;20.90;99.90
30648;DHT22;17683;53.360;9.736;2023-07-13T16:10:36;20.90;99.90
30648;DHT22;17683;53.360;9.736;2023-07-13T16:13:04;20.80;99.90
30648;DHT22;17683;53.360;9.736;2023-07-13T16:15:33;20.70;99.90
30648;DHT22;17683;53.360;9.736;2023-07-13T16:17:58;20.70;99.90
30648;DHT22;17683;53.360;9.736;2023-07-13T16:20:24;20.70;99.90
30648;DHT22;17683;53.360;9.736;2023-07-13T16:22:52;20.60;99.90